Time;durP1;ratioP1;P1;durP2;ratioP2;P2;SDS_P1;SDS_P2;PMS_P1;PMS_P2;Temp;Humidity;BMP_temperature;BMP_pressure;BME280_temperature;BME280_humidity;BME280_pressure;Samples;Min_cycle;Max_cycle;Signal;HPM_P1;HPM_P2
2023/08/24 00:00:45;;;;;;;1.60;1.50;;;;;;;20.47;76.89;100868.91;5052542;28;20209;-74
2023/08/24 00:03:12;;;;;;;2.30;1.83;;;;;;;20.44;76.81;100859.34;5052712;28;20317;-75
2023/08/24 00:05:39;;;;;;;1.80;1.70;;;;;;;20.37;77.36;100859.75;5053077;28;20212;-74
2023/08/24 00:08:07;;;;;;;1.90;1.80;;;;;;;20.32;77.35;100854.69;5052709;28;20738;-75
2023/08/24 00:10:34;;;;;;;4.57;1.97;;;;;;;20.24;78.09;100847.16;5052847;28;20613;-74
2023/08/24 00:13:02;;;;;;;2.07;1.73;;;;;;;20.24;79.05;100825.09;5051964;28;20734;-74
2023/08/24 00:15:30;;;;;;;2.63;2.00;;;;;;;20.23;79.03;100818.06;5053114;28;20276;-74
2023/08/24 00:17:56;;;;;;;2.40;1.83;;;;;;;20.13;79.75;100809.72;5052245;28;20656;-74
2023/08/24 00:20:23;;;;;;;2.40;2.20;;;;;;;20.11;79.78;100794.84;5052764;28;20212;-74
2023/08/24 00:22:49;;;;;;;2.70;2.17;;;;;;;20.08;80.25;100784.41;5052334;28;20225;-74
2023/08/24 00:25:16;;;;;;;3.03;2.83;;;;;;;20.09;80.76;100789.63;5052971;28;20204;-74
2023/08/24 00:27:42;;;;;;;2.53;2.20;;;;;;;20.08;79.78;100800.31;5051966;28;20666;-74
2023/08/24 00:30:11;;;;;;;2.13;2.03;;;;;;;19.44;78.24;100860.91;5052589;28;20292;-74
2023/08/24 00:32:38;;;;;;;3.10;2.93;;;;;;;18.03;85.13;100804.84;5052057;28;20233;-75
2023/08/24 00:35:06;;;;;;;3.60;3.30;;;;;;;17.95;88.03;100666.97;5052442;28;20639;-74
2023/08/24 00:37:33;;;;;;;2.87;2.70;;;;;;;17.49;91.73;100598.63;5052258;28;20247;-74
2023/08/24 00:40:01;;;;;;;4.40;4.20;;;;;;;17.30;96.01;100502.72;5052086;28;20204;-74
2023/08/24 00:42:27;;;;;;;3.17;2.93;;;;;;;17.63;94.37;100495.03;5051897;28;20229;-74
2023/08/24 00:44:54;;;;;;;4.67;4.37;;;;;;;17.67;94.91;100500.09;5052498;28;20219;-74
2023/08/24 00:47:22;;;;;;;4.70;4.30;;;;;;;17.53;96.05;100491.13;5051391;28;20211;-74
2023/08/24 00:49:49;;;;;;;4.40;4.00;;;;;;;17.53;97.72;100459.44;5052263;28;20209;-74
2023/08/24 00:52:15;;;;;;;3.70;3.50;;;;;;;17.66;95.93;100486.97;5052098;28;20594;-74
2023/08/24 00:54:42;;;;;;;5.17;4.90;;;;;;;17.64;97.09;100487.06;5051856;28;20234;-74
2023/08/24 00:57:09;;;;;;;4.67;4.37;;;;;;;17.58;97.95;100481.19;5052158;28;20216;-74
2023/08/24 00:59:35;;;;;;;4.30;3.93;;;;;;;17.67;98.46;100476.31;5052130;28;20213;-74
2023/08/24 01:02:03;;;;;;;6.67;4.80;;;;;;;17.90;97.94;100484.97;5051674;28;20225;-74
2023/08/24 01:04:31;;;;;;;5.23;4.90;;;;;;;17.81;96.91;100512.63;5052244;28;20213;-74
2023/08/24 01:06:57;;;;;;;5.80;5.27;;;;;;;17.75;97.37;100509.44;5052194;28;20251;-74
2023/08/24 01:09:24;;;;;;;6.77;4.90;;;;;;;17.58;98.70;100497.91;5051970;28;20216;-74
2023/08/24 01:11:59;;;;;;;8.03;5.60;;;;;;;17.62;98.67;100496.81;5051801;28;20509;-74
2023/08/24 01:14:36;;;;;;;6.23;5.90;;;;;;;17.59;99.04;100496.09;5050818;28;20213;-74
2023/08/24 01:17:09;;;;;;;6.80;6.40;;;;;;;17.56;99.54;100499.75;5051570;28;20205;-74
2023/08/24 01:19:42;;;;;;;6.33;5.83;;;;;;;17.53;99.79;100491.97;5051832;28;20209;-74
2023/08/24 01:22:31;;;;;;;6.20;5.80;;;;;;;17.52;99.98;100499.94;5051792;28;20243;-74
2023/08/24 01:25:07;;;;;;;5.97;5.47;;;;;;;17.47;100.00;100495.75;5051205;28;20208;-74
2023/08/24 01:27:36;;;;;;;5.90;5.50;;;;;;;17.37;100.00;100480.44;5051772;28;20204;-74
2023/08/24 01:30:04;;;;;;;5.57;5.17;;;;;;;17.42;100.00;100479.28;5051699;28;20663;-74
2023/08/24 01:32:31;;;;;;;5.50;5.20;;;;;;;17.57;100.00;100482.13;5051197;28;20232;-73
2023/08/24 01:34:58;;;;;;;5.70;5.30;;;;;;;17.63;100.00;100487.97;5051561;28;20233;-74
2023/08/24 01:37:24;;;;;;;6.30;5.70;;;;;;;17.67;100.00;100505.38;5051342;28;20209;-74
2023/08/24 01:40:01;;;;;;;5.83;5.37;;;;;;;17.71;100.00;100510.50;5051579;28;20205;-74
2023/08/24 01:42:32;;;;;;;5.40;5.07;;;;;;;17.86;100.00;100512.47;5051326;28;20252;-74
2023/08/24 01:45:04;;;;;;;4.80;4.50;;;;;;;17.92;99.28;100535.06;5051597;28;20201;-74
2023/08/24 01:47:31;;;;;;;5.70;5.20;;;;;;;18.04;98.66;100551.19;5050675;28;20698;-74
2023/08/24 01:49:58;;;;;;;5.07;4.57;;;;;;;18.02;97.87;100573.31;5051509;28;20213;-74
2023/08/24 01:52:25;;;;;;;5.17;4.77;;;;;;;17.98;97.12;100582.34;5051369;28;20228;-74
2023/08/24 01:54:52;;;;;;;6.10;5.80;;;;;;;17.93;96.39;100594.88;5050979;28;20209;-74
2023/08/24 01:57:19;;;;;;;5.37;5.07;;;;;;;18.04;96.97;100589.97;5050966;28;20519;-74
2023/08/24 01:59:45;;;;;;;5.57;5.27;;;;;;;18.07;96.73;100597.72;5051113;28;20222;-74
2023/08/24 02:02:13;;;;;;;6.87;5.80;;;;;;;18.14;96.98;100591.22;5051017;28;20224;-74
2023/08/24 02:04:39;;;;;;;6.43;5.83;;;;;;;18.20;96.51;100604.13;5051590;28;20205;-74
2023/08/24 02:07:06;;;;;;;5.47;5.07;;;;;;;18.24;95.13;100631.28;5051212;28;20209;-74
2023/08/24 02:09:32;;;;;;;5.50;5.10;;;;;;;18.30;95.63;100620.41;5050901;28;20202;-74
2023/08/24 02:11:59;;;;;;;5.30;4.90;;;;;;;18.23;95.09;100625.13;5051013;28;20240;-74
2023/08/24 02:14:25;;;;;;;6.70;5.10;;;;;;;18.34;95.04;100627.25;5051034;28;20675;-74
2023/08/24 02:16:52;;;;;;;5.70;5.30;;;;;;;18.39;94.73;100622.63;5050949;28;20231;-74
2023/08/24 02:19:20;;;;;;;5.63;5.13;;;;;;;18.53;95.32;100615.78;5050681;28;20209;-74
2023/08/24 02:21:46;;;;;;;5.60;5.20;;;;;;;18.64;94.06;100624.03;5051016;28;20229;-74
2023/08/24 02:24:13;;;;;;;5.50;5.20;;;;;;;18.74;92.52;100656.19;5050997;28;20205;-74
2023/08/24 02:26:39;;;;;;;5.23;4.97;;;;;;;18.79;91.83;100673.56;5053960;28;20204;-74
2023/08/24 02:29:06;;;;;;;4.80;4.50;;;;;;;18.82;90.78;100696.34;5054722;28;20206;-74
2023/08/24 02:31:32;;;;;;;4.20;4.00;;;;;;;18.80;90.36;100707.00;5054709;28;20228;-74
2023/08/24 02:33:59;;;;;;;4.20;4.00;;;;;;;18.84;90.49;100710.38;5054379;28;20282;-74
2023/08/24 02:36:27;;;;;;;4.60;4.30;;;;;;;18.86;90.20;100708.50;5054388;28;20258;-74
2023/08/24 02:38:54;;;;;;;4.63;4.23;;;;;;;18.83;90.06;100713.97;5054492;28;20198;-74
2023/08/24 02:41:20;;;;;;;5.10;4.80;;;;;;;18.85;89.51;100722.66;5054115;28;20704;-74
2023/08/24 02:43:47;;;;;;;5.10;4.80;;;;;;;18.84;88.96;100729.72;5054795;28;20209;-74
2023/08/24 02:46:13;;;;;;;4.27;4.07;;;;;;;18.80;89.13;100722.03;5054587;28;20198;-74
2023/08/24 02:48:40;;;;;;;5.03;4.77;;;;;;;18.79;88.57;100741.44;5053706;28;20197;-74
2023/08/24 02:51:07;;;;;;;5.00;4.50;;;;;;;18.82;89.04;100728.94;5054350;28;20213;-74
2023/08/24 02:53:34;;;;;;;4.70;4.40;;;;;;;18.86;88.18;100734.94;5054026;28;20221;-74
2023/08/24 02:56:02;;;;;;;4.67;4.37;;;;;;;18.84;87.95;100732.38;5054180;28;20583;-74
2023/08/24 02:58:29;;;;;;;4.73;4.43;;;;;;;18.80;88.25;100735.25;5054827;28;20217;-74
2023/08/24 03:00:55;;;;;;;5.33;4.60;;;;;;;18.81;87.51;100735.19;5053946;28;20209;-74
2023/08/24 03:03:22;;;;;;;5.50;5.10;;;;;;;18.79;87.66;100749.34;5053661;28;20724;-74
2023/08/24 03:05:56;;;;;;;5.50;5.20;;;;;;;18.71;88.39;100728.59;5054203;28;20208;-74
2023/08/24 03:08:22;;;;;;;4.90;4.60;;;;;;;18.68;88.67;100712.88;5053793;28;20209;-74
2023/08/24 03:10:50;;;;;;;5.00;4.67;;;;;;;18.71;88.31;100723.31;5054144;28;20208;-74
2023/08/24 03:13:17;;;;;;;5.33;4.97;;;;;;;18.75;87.55;100735.44;5053887;28;20225;-74
2023/08/24 03:15:43;;;;;;;5.23;4.93;;;;;;;18.75;87.81;100722.22;5054091;28;20250;-74
2023/08/24 03:18:12;;;;;;;5.67;5.27;;;;;;;18.66;87.84;100723.50;5053370;28;20201;-74
2023/08/24 03:20:38;;;;;;;5.63;5.33;;;;;;;18.61;88.63;100714.97;5053754;28;20213;-74
2023/08/24 03:23:05;;;;;;;5.27;4.97;;;;;;;18.64;88.48;100713.94;5053721;28;20221;-74
2023/08/24 03:25:32;;;;;;;5.33;4.93;;;;;;;18.63;87.62;100728.09;5054066;28;20208;-74
2023/08/24 03:28:00;;;;;;;4.80;4.60;;;;;;;18.63;87.25;100743.94;5053514;28;20266;-74
2023/08/24 03:30:26;;;;;;;5.13;4.83;;;;;;;18.62;87.40;100740.44;5053716;28;20671;-74
2023/08/24 03:32:53;;;;;;;5.60;5.10;;;;;;;18.62;87.67;100756.31;5052814;28;20232;-74
2023/08/24 03:35:19;;;;;;;6.30;5.87;;;;;;;18.64;88.13;100749.16;5053482;28;20212;-74
2023/08/24 03:37:46;;;;;;;6.57;6.17;;;;;;;18.21;89.22;100737.94;5052383;28;20674;-74
2023/08/24 03:40:13;;;;;;;6.73;6.13;;;;;;;18.20;89.17;100725.69;5053326;28;20213;-74
2023/08/24 03:42:39;;;;;;;6.17;5.87;;;;;;;18.11;90.15;100699.69;5053720;28;20225;-75
2023/08/24 03:45:08;;;;;;;7.37;6.83;;;;;;;17.90;90.34;100696.25;5053397;28;20205;-74
2023/08/24 03:47:34;;;;;;;6.70;6.20;;;;;;;18.03;90.52;100680.69;5052772;28;20205;-74
2023/08/24 03:50:01;;;;;;;5.87;5.57;;;;;;;17.89;90.09;100693.69;5053232;28;20219;-74
2023/08/24 03:52:28;;;;;;;5.97;5.47;;;;;;;18.05;89.77;100670.91;5053274;28;20220;-74
2023/08/24 03:54:54;;;;;;;5.57;5.17;;;;;;;18.03;89.34;100681.53;5053009;28;20684;-74
2023/08/24 03:57:21;;;;;;;6.00;5.60;;;;;;;18.04;89.08;100672.69;5052932;28;20236;-74
2023/08/24 03:59:47;;;;;;;5.33;5.03;;;;;;;18.17;88.76;100701.19;5053033;28;20321;-74
2023/08/24 04:02:15;;;;;;;5.73;5.33;;;;;;;18.24;88.57;100710.56;5052425;28;20239;-74
2023/08/24 04:04:42;;;;;;;6.50;6.20;;;;;;;17.63;90.19;100712.34;5053330;28;20205;-74
2023/08/24 04:07:08;;;;;;;14.27;6.37;;;;;;;17.81;91.50;100667.56;5053083;28;20197;-74
2023/08/24 04:09:35;;;;;;;6.37;5.90;;;;;;;17.89;91.42;100652.25;5052659;28;20204;-74
2023/08/24 04:12:01;;;;;;;6.27;5.90;;;;;;;17.48;91.98;100662.88;5052600;28;20229;-74
2023/08/24 04:14:28;;;;;;;6.77;6.37;;;;;;;17.14;94.77;100619.50;5052666;28;20667;-74
2023/08/24 04:16:55;;;;;;;7.70;7.30;;;;;;;16.72;99.84;100528.09;5052640;28;20232;-73
2023/08/24 04:19:22;;;;;;;7.93;7.40;;;;;;;17.03;100.00;100492.53;5052720;28;20284;-73
2023/08/24 04:21:49;;;;;;;7.40;7.00;;;;;;;17.12;98.95;100509.69;5052728;28;20224;-73
2023/08/24 04:24:15;;;;;;;6.97;6.37;;;;;;;17.17;98.81;100520.91;5052499;28;20693;-74
2023/08/24 04:26:42;;;;;;;8.20;7.70;;;;;;;17.12;98.80;100529.00;5052394;28;20212;-74
2023/08/24 04:29:09;;;;;;;8.23;7.53;;;;;;;16.78;100.00;100519.06;5052515;28;20637;-74
2023/08/24 04:31:37;;;;;;;8.73;8.20;;;;;;;16.49;100.00;100479.03;5052098;28;20220;-73
2023/08/24 04:34:03;;;;;;;10.20;9.40;;;;;;;16.40;100.00;100445.16;5052321;28;20213;-74
2023/08/24 04:36:31;;;;;;;9.20;8.60;;;;;;;16.65;100.00;100429.16;5052217;28;20728;-73
2023/08/24 04:38:58;;;;;;;7.90;7.30;;;;;;;16.99;100.00;100428.50;5052059;28;20210;-73
2023/08/24 04:41:24;;;;;;;7.30;6.90;;;;;;;17.24;100.00;100449.34;5052220;28;20208;-73
2023/08/24 04:43:51;;;;;;;7.47;6.97;;;;;;;17.39;100.00;100489.97;5052216;28;20300;-74
2023/08/24 04:46:17;;;;;;;7.77;7.13;;;;;;;17.51;98.35;100533.41;5051976;28;20577;-74
2023/08/24 04:48:44;;;;;;;7.60;6.23;;;;;;;17.67;97.48;100554.69;5051627;28;20208;-73
2023/08/24 04:51:10;;;;;;;7.27;6.70;;;;;;;17.80;97.64;100573.44;5052135;28;20213;-74
2023/08/24 04:53:38;;;;;;;8.07;7.33;;;;;;;17.50;96.48;100610.88;5051627;28;20208;-73
2023/08/24 04:56:05;;;;;;;7.47;7.07;;;;;;;17.29;98.56;100604.78;5052049;28;20236;-74
2023/08/24 04:58:33;;;;;;;9.10;8.40;;;;;;;16.83;100.00;100559.31;5052222;28;20203;-73
2023/08/24 05:01:00;;;;;;;9.63;9.13;;;;;;;16.67;100.00;100504.59;5051644;28;20216;-73
2023/08/24 05:03:27;;;;;;;10.10;9.50;;;;;;;16.43;100.00;100477.50;5051539;28;20228;-73
2023/08/24 05:05:53;;;;;;;11.53;10.67;;;;;;;16.44;100.00;100446.75;5052134;28;20254;-74
2023/08/24 05:08:20;;;;;;;11.83;10.90;;;;;;;16.44;100.00;100423.88;5051359;28;20227;-73
2023/08/24 05:10:47;;;;;;;11.57;10.87;;;;;;;16.59;100.00;100417.09;5051572;28;20213;-73
2023/08/24 05:13:14;;;;;;;12.03;11.13;;;;;;;16.77;100.00;100425.97;5051820;28;20233;-74
2023/08/24 05:15:41;;;;;;;10.33;9.70;;;;;;;17.12;100.00;100430.56;5051765;28;20218;-73
2023/08/24 05:18:07;;;;;;;10.10;9.50;;;;;;;17.39;100.00;100468.03;5051007;28;20208;-73
2023/08/24 05:20:35;;;;;;;9.67;8.97;;;;;;;17.64;100.00;100492.31;5051731;28;20204;-73
2023/08/24 05:23:01;;;;;;;10.13;9.50;;;;;;;17.51;99.71;100543.97;5051407;28;20231;-74
2023/08/24 05:25:28;;;;;;;9.67;9.07;;;;;;;17.77;99.23;100548.03;5051946;28;20574;-74
2023/08/24 05:27:55;;;;;;;10.13;9.53;;;;;;;18.00;98.01;100575.19;5051419;28;20200;-73
2023/08/24 05:30:24;;;;;;;8.90;8.40;;;;;;;18.14;97.08;100596.50;5051579;28;20212;-74
2023/08/24 05:32:50;;;;;;;8.57;7.97;;;;;;;18.24;96.50;100618.91;5050751;28;20228;-74
2023/08/24 05:35:17;;;;;;;7.97;7.50;;;;;;;18.33;96.21;100635.25;5051487;28;20209;-73
2023/08/24 05:37:43;;;;;;;9.20;8.60;;;;;;;18.38;95.80;100643.84;5051076;28;20221;-73
2023/08/24 05:40:11;;;;;;;9.13;8.23;;;;;;;18.44;95.40;100654.09;5051314;28;20512;-73
2023/08/24 05:42:37;;;;;;;8.83;8.07;;;;;;;18.58;94.81;100667.50;5051472;28;20286;-73
2023/08/24 05:45:06;;;;;;;9.07;8.57;;;;;;;18.14;93.84;100711.91;5051534;28;20258;-73
2023/08/24 05:47:33;;;;;;;10.27;9.53;;;;;;;17.84;96.15;100688.59;5046673;28;20550;-73
2023/08/24 05:49:59;;;;;;;10.30;9.50;;;;;;;18.00;97.22;100647.34;5050288;28;20202;-73
2023/08/24 05:52:26;;;;;;;9.57;8.87;;;;;;;18.19;96.70;100649.13;5050980;28;20235;-73
2023/08/24 05:54:52;;;;;;;11.13;10.27;;;;;;;17.76;98.18;100643.16;5051389;28;20289;-73
2023/08/24 05:57:18;;;;;;;9.57;8.67;;;;;;;18.01;98.72;100619.16;5050930;28;20224;-73
2023/08/24 05:59:45;;;;;;;9.57;9.07;;;;;;;18.03;97.08;100638.41;5051164;28;20220;-73
2023/08/24 06:02:13;;;;;;;10.20;9.43;;;;;;;17.67;96.61;100662.91;5054527;28;20239;-73
2023/08/24 06:04:39;;;;;;;9.70;8.67;;;;;;;17.63;98.36;100621.75;5055129;28;20208;-73
2023/08/24 06:07:06;;;;;;;10.30;9.60;;;;;;;17.33;99.68;100608.16;5060176;28;20280;-73
2023/08/24 06:09:33;;;;;;;10.03;9.43;;;;;;;17.26;100.00;100568.84;5057371;28;20207;-73
2023/08/24 06:11:59;;;;;;;10.77;10.00;;;;;;;17.26;100.00;100542.47;5054793;28;20228;-73
2023/08/24 06:14:26;;;;;;;9.57;8.97;;;;;;;17.52;100.00;100526.34;5055265;28;20264;-74
2023/08/24 06:16:53;;;;;;;9.03;8.30;;;;;;;17.80;100.00;100525.91;5054479;28;20590;-73
2023/08/24 06:19:21;;;;;;;9.93;9.03;;;;;;;18.02;100.00;100545.13;5054537;28;20289;-74
2023/08/24 06:21:47;;;;;;;10.23;9.63;;;;;;;18.15;98.81;100560.38;5054959;28;20220;-73
2023/08/24 06:24:14;;;;;;;9.83;9.23;;;;;;;18.34;97.35;100576.19;5054735;28;20208;-74
2023/08/24 06:26:40;;;;;;;8.93;8.23;;;;;;;18.48;95.56;100609.88;5054721;28;20234;-74
2023/08/24 06:29:07;;;;;;;9.60;9.00;;;;;;;18.58;94.92;100627.84;5054864;28;20203;-74
2023/08/24 06:31:33;;;;;;;7.90;7.40;;;;;;;18.66;94.48;100627.47;5054429;28;20627;-74
2023/08/24 06:34:00;;;;;;;9.23;8.57;;;;;;;18.73;93.48;100651.81;5053750;28;20209;-74
2023/08/24 06:36:28;;;;;;;9.17;8.57;;;;;;;18.81;93.96;100647.91;5054513;28;20211;-74
2023/08/24 06:38:55;;;;;;;8.90;8.33;;;;;;;18.87;94.68;100633.53;5054799;28;20665;-74
2023/08/24 06:41:21;;;;;;;8.80;7.90;;;;;;;18.96;94.69;100626.88;5054127;28;20205;-74
2023/08/24 06:43:47;;;;;;;8.93;8.13;;;;;;;19.01;94.95;100606.38;5054459;28;20209;-74
2023/08/24 06:46:15;;;;;;;7.47;7.03;;;;;;;19.09;95.58;100613.88;5054250;28;20215;-73
2023/08/24 06:48:43;;;;;;;9.23;8.60;;;;;;;19.21;95.60;100614.13;5054228;28;20204;-74
2023/08/24 06:51:11;;;;;;;8.60;8.00;;;;;;;19.30;95.08;100617.22;5054230;28;20213;-74
2023/08/24 06:53:38;;;;;;;10.27;8.53;;;;;;;19.36;94.76;100609.78;5053599;28;20662;-74
2023/08/24 06:56:05;;;;;;;10.03;9.33;;;;;;;19.43;93.40;100635.00;5054157;28;20247;-74
2023/08/24 06:58:31;;;;;;;11.23;10.07;;;;;;;19.44;92.47;100657.91;5053127;28;20607;-74
2023/08/24 07:00:58;;;;;;;10.00;9.17;;;;;;;19.45;92.90;100662.25;5054159;28;20213;-74
2023/08/24 07:03:25;;;;;;;9.10;8.50;;;;;;;19.44;94.15;100642.03;5053610;28;20239;-74
2023/08/24 07:05:51;;;;;;;8.30;7.80;;;;;;;19.53;94.83;100626.59;5054132;28;20229;-74
2023/08/24 07:08:18;;;;;;;10.73;8.43;;;;;;;19.58;92.78;100646.59;5053577;28;20201;-74
2023/08/24 07:10:45;;;;;;;8.40;7.90;;;;;;;19.65;92.34;100658.56;5053696;28;20213;-73
2023/08/24 07:13:12;;;;;;;10.17;9.17;;;;;;;19.83;97.28;100603.75;5052404;28;20609;-76
2023/08/24 07:15:39;;;;;;;14.70;12.77;;;;;;;19.90;99.49;100508.03;5054236;28;20209;-76
2023/08/24 07:18:07;;;;;;;11.90;9.53;;;;;;;19.99;97.45;100541.97;5053427;28;20226;-76
2023/08/24 07:20:33;;;;;;;8.73;8.03;;;;;;;20.13;95.75;100570.34;5053872;28;20567;-75
2023/08/24 07:23:00;;;;;;;9.70;7.97;;;;;;;20.14;93.30;100607.38;5053758;28;20225;-76
2023/08/24 07:25:27;;;;;;;9.67;8.87;;;;;;;20.31;93.50;100618.81;5053618;28;20210;-75
2023/08/24 07:27:58;;;;;;;9.60;8.90;;;;;;;20.36;91.71;100633.53;5053299;28;20204;-75
2023/08/24 07:30:24;;;;;;;8.77;7.97;;;;;;;20.38;89.98;100686.47;5053824;28;20667;-77
2023/08/24 07:32:51;;;;;;;9.70;9.07;;;;;;;20.39;89.05;100702.25;5052782;28;20236;-75
2023/08/24 07:35:18;;;;;;;9.83;9.13;;;;;;;20.25;91.18;100686.28;5053549;28;20209;-77
2023/08/24 07:37:44;;;;;;;10.03;9.43;;;;;;;20.37;92.90;100640.50;5053238;28;20229;-74
2023/08/24 07:40:11;;;;;;;8.50;7.90;;;;;;;20.49;92.42;100625.69;5052306;28;20212;-76
2023/08/24 07:42:44;;;;;;;11.03;7.17;;;;;;;20.54;91.26;100649.34;5053305;28;20228;-76
2023/08/24 07:45:13;;;;;;;10.33;9.53;;;;;;;20.62;92.11;100640.00;5046309;28;20213;-77
2023/08/24 07:47:40;;;;;;;8.43;7.93;;;;;;;20.69;92.52;100613.97;5054393;28;20204;-78
2023/08/24 07:50:08;;;;;;;8.57;7.93;;;;;;;20.84;90.81;100646.72;5053794;28;20209;-75
2023/08/24 07:52:34;;;;;;;8.43;7.90;;;;;;;20.97;91.62;100622.97;5043951;28;20267;-75
2023/08/24 07:55:03;;;;;;;9.17;8.40;;;;;;;21.06;89.53;100648.13;5052900;28;20214;-75
2023/08/24 07:57:31;;;;;;;8.73;8.03;;;;;;;21.07;89.36;100671.03;5052765;28;20221;-75
2023/08/24 07:59:57;;;;;;;7.93;7.17;;;;;;;21.20;89.15;100667.56;5053140;28;20200;-76
2023/08/24 08:02:25;;;;;;;7.90;7.40;;;;;;;21.28;88.02;100698.97;5052539;28;20240;-76
2023/08/24 08:04:52;;;;;;;8.00;7.53;;;;;;;21.23;88.40;100691.28;5052921;28;20205;-75
2023/08/24 08:07:19;;;;;;;8.53;7.93;;;;;;;21.32;89.01;100683.72;5052622;28;20209;-74
2023/08/24 08:09:45;;;;;;;9.77;9.00;;;;;;;21.37;88.59;100687.81;5052528;28;20614;-74
2023/08/24 08:12:12;;;;;;;7.53;7.13;;;;;;;21.42;88.12;100693.69;5052776;28;20232;-74
2023/08/24 08:14:38;;;;;;;8.33;7.77;;;;;;;21.39;87.56;100701.84;5051330;28;20224;-74
2023/08/24 08:17:05;;;;;;;8.63;7.53;;;;;;;21.41;87.46;100701.78;5052440;28;20225;-75
2023/08/24 08:19:35;;;;;;;8.10;7.60;;;;;;;21.45;87.44;100705.97;5052548;28;20202;-74
2023/08/24 08:22:02;;;;;;;7.87;7.13;;;;;;;21.49;86.43;100722.59;5052565;28;20227;-74
2023/08/24 08:24:28;;;;;;;7.20;6.73;;;;;;;21.48;86.16;100719.06;5052010;28;20203;-75
2023/08/24 08:26:55;;;;;;;7.43;6.97;;;;;;;21.46;87.24;100709.47;5052520;28;20213;-75
2023/08/24 08:29:21;;;;;;;7.50;7.00;;;;;;;21.54;86.95;100699.25;5052543;28;20577;-75
2023/08/24 08:31:48;;;;;;;8.50;7.80;;;;;;;21.45;87.26;100695.34;5052199;28;20232;-75
2023/08/24 08:34:14;;;;;;;7.90;7.30;;;;;;;21.42;89.21;100660.97;5052032;28;20201;-74
2023/08/24 08:36:42;;;;;;;7.00;6.60;;;;;;;21.46;90.38;100627.16;5052203;28;20217;-74
2023/08/24 08:39:09;;;;;;;7.13;6.73;;;;;;;21.55;90.60;100618.63;5052254;28;20595;-75
2023/08/24 08:41:44;;;;;;;5.83;5.53;;;;;;;21.63;90.51;100602.22;5051876;28;20734;-74
2023/08/24 08:44:14;;;;;;;6.47;5.97;;;;;;;21.70;88.63;100622.09;5052328;28;20690;-75
2023/08/24 08:46:42;;;;;;;6.30;5.87;;;;;;;21.71;87.89;100659.22;5044310;28;20219;-75
2023/08/24 08:49:09;;;;;;;6.53;6.03;;;;;;;21.74;86.50;100688.28;5051666;28;20210;-74
2023/08/24 08:51:37;;;;;;;6.67;6.17;;;;;;;21.87;88.33;100666.25;5052189;28;20630;-75
2023/08/24 08:54:06;;;;;;;6.17;5.73;;;;;;;21.95;86.32;100693.19;5051968;28;20202;-74
2023/08/24 08:56:33;;;;;;;6.63;6.23;;;;;;;21.96;86.18;100703.75;5051887;28;20682;-74
2023/08/24 08:59:00;;;;;;;6.33;6.00;;;;;;;21.98;85.73;100708.94;5051676;28;20592;-74
2023/08/24 09:01:27;;;;;;;6.40;6.00;;;;;;;22.07;87.14;100684.44;5051620;28;20312;-74
2023/08/24 09:03:54;;;;;;;6.30;5.63;;;;;;;22.12;85.67;100710.72;5051639;28;20221;-75
2023/08/24 09:06:22;;;;;;;7.00;6.60;;;;;;;22.18;84.30;100739.63;5051865;28;20213;-74
2023/08/24 09:08:50;;;;;;;6.80;6.40;;;;;;;22.24;82.30;100767.59;5051688;28;20628;-75
2023/08/24 09:11:18;;;;;;;6.60;6.30;;;;;;;22.29;80.79;100824.06;5051430;28;20214;-75
2023/08/24 09:13:45;;;;;;;6.63;6.23;;;;;;;22.37;80.34;100833.28;5052068;28;20206;-75
2023/08/24 09:16:15;;;;;;;5.73;5.43;;;;;;;22.51;80.27;100828.91;5051394;28;20217;-74
2023/08/24 09:18:44;;;;;;;5.70;5.40;;;;;;;22.49;85.24;100743.84;5051422;28;20295;-74
2023/08/24 09:21:12;;;;;;;6.07;5.67;;;;;;;22.51;85.56;100710.03;5051832;28;20217;-74
2023/08/24 09:23:43;;;;;;;6.23;5.73;;;;;;;22.60;83.12;100733.38;5051364;28;20206;-74
2023/08/24 09:26:10;;;;;;;5.73;5.43;;;;;;;22.71;78.65;100827.63;5051651;28;20220;-75
2023/08/24 09:28:39;;;;;;;6.13;5.83;;;;;;;22.70;77.94;100860.53;5051306;28;20718;-75
2023/08/24 09:31:05;;;;;;;6.37;5.77;;;;;;;22.79;80.39;100828.88;5051669;28;20205;-75
2023/08/24 09:33:32;;;;;;;6.00;5.50;;;;;;;22.89;84.90;100706.66;5050833;28;20300;-74
2023/08/24 09:36:03;;;;;;;6.43;5.90;;;;;;;23.07;86.71;100651.38;5050666;28;20216;-74
2023/08/24 09:38:30;;;;;;;6.37;5.87;;;;;;;23.19;84.97;100663.84;5050979;28;20245;-75
2023/08/24 09:40:57;;;;;;;6.17;5.50;;;;;;;23.30;84.43;100684.41;5050962;28;20224;-74
2023/08/24 09:43:25;;;;;;;6.10;5.60;;;;;;;23.42;84.72;100676.53;5051087;28;20754;-75
2023/08/24 09:45:54;;;;;;;6.23;5.63;;;;;;;23.57;81.79;100715.47;5051062;28;20677;-75
2023/08/24 09:48:21;;;;;;;6.67;5.57;;;;;;;23.57;81.78;100750.94;5050773;28;20216;-74
2023/08/24 09:50:50;;;;;;;5.90;5.50;;;;;;;23.78;84.20;100705.13;5051379;28;20561;-75
2023/08/24 09:53:20;;;;;;;5.50;5.10;;;;;;;23.85;79.20;100782.88;5051005;28;20243;-75
2023/08/24 09:55:53;;;;;;;5.20;4.80;;;;;;;24.02;84.69;100707.03;5050862;28;20247;-75
2023/08/24 09:58:21;;;;;;;4.90;4.57;;;;;;;24.05;77.53;100785.00;5051085;28;20768;-75
2023/08/24 10:00:48;;;;;;;5.80;4.90;;;;;;;24.08;76.98;100824.81;5051372;28;20209;-75
2023/08/24 10:03:20;;;;;;;5.20;4.80;;;;;;;24.10;74.49;100886.91;5050484;28;20225;-75
2023/08/24 10:05:49;;;;;;;5.37;4.73;;;;;;;24.12;73.15;100927.66;5051167;28;20212;-75
2023/08/24 10:08:18;;;;;;;5.13;4.73;;;;;;;24.17;74.35;100911.34;5050554;28;20201;-75
2023/08/24 10:10:45;;;;;;;5.10;4.70;;;;;;;24.26;76.06;100869.81;5050720;28;20674;-75
2023/08/24 10:13:18;;;;;;;5.27;4.77;;;;;;;24.33;72.32;100900.47;5050788;28;20233;-75
2023/08/24 10:15:47;;;;;;;5.57;5.17;;;;;;;24.38;73.96;100923.22;5050729;28;20202;-75
2023/08/24 10:18:16;;;;;;;5.37;4.87;;;;;;;24.60;77.27;100854.13;5050373;28;20222;-75
2023/08/24 10:20:43;;;;;;;5.47;5.07;;;;;;;24.70;78.88;100778.63;5050564;28;20202;-75
2023/08/24 10:23:12;;;;;;;4.83;4.50;;;;;;;24.78;75.23;100794.09;5050696;28;20221;-75
2023/08/24 10:25:42;;;;;;;5.30;4.70;;;;;;;24.81;72.56;100889.13;5050691;28;20205;-74
2023/08/24 10:28:08;;;;;;;5.47;5.07;;;;;;;24.97;75.39;100836.31;5050896;28;20293;-75
2023/08/24 10:30:36;;;;;;;4.70;4.37;;;;;;;24.98;69.93;100923.50;5050412;28;20205;-75
2023/08/24 10:33:03;;;;;;;5.30;5.00;;;;;;;25.07;68.70;100948.69;5050229;28;20233;-75
2023/08/24 10:35:32;;;;;;;5.23;4.73;;;;;;;25.10;69.19;100960.00;5050707;28;20229;-75
2023/08/24 10:37:59;;;;;;;4.37;4.17;;;;;;;25.16;70.23;100959.56;5050571;28;20230;-75
2023/08/24 10:40:33;;;;;;;5.23;4.63;;;;;;;25.24;67.71;100988.44;5051467;28;20206;-75
2023/08/24 10:43:03;;;;;;;4.87;4.47;;;;;;;25.39;66.93;101013.22;5050373;28;20645;-75
2023/08/24 10:45:55;;;;;;;4.97;4.57;;;;;;;25.46;67.18;101027.84;5050668;28;20205;-75
2023/08/24 10:48:23;;;;;;;5.23;4.67;;;;;;;25.58;69.35;100996.69;5054224;28;20205;-75
2023/08/24 10:51:22;;;;;;;4.27;4.03;;;;;;;25.58;63.68;101054.66;5054381;28;20237;-76
2023/08/24 10:53:53;;;;;;;5.33;4.93;;;;;;;25.58;63.61;101103.63;5046065;28;20233;-76
2023/08/24 10:56:20;;;;;;;5.00;4.70;;;;;;;25.70;66.19;101083.16;5054393;28;20252;-76
2023/08/24 10:58:48;;;;;;;7.23;5.13;;;;;;;25.89;68.42;101013.16;5054689;28;20263;-77
2023/08/24 11:01:19;;;;;;;5.20;4.70;;;;;;;25.97;65.46;101050.91;5056184;28;20206;-77
2023/08/24 11:03:56;;;;;;;5.93;4.27;;;;;;;26.05;65.71;101053.03;5057809;28;20214;-77
2023/08/24 11:06:25;;;;;;;4.73;4.33;;;;;;;26.15;64.22;101046.00;5060849;28;20201;-77
2023/08/24 11:09:09;;;;;;;4.77;3.97;;;;;;;26.09;61.25;101181.13;5061917;28;20203;-77
2023/08/24 11:11:36;;;;;;;4.53;4.13;;;;;;;26.09;60.11;101177.59;5061813;28;20252;-77
2023/08/24 11:14:15;;;;;;;6.70;4.10;;;;;;;26.17;62.88;101169.00;5055800;28;20221;-77
2023/08/24 11:16:43;;;;;;;9.73;4.43;;;;;;;26.25;65.52;101078.28;5055009;28;20209;-77
2023/08/24 11:19:11;;;;;;;4.60;4.20;;;;;;;26.39;61.70;101088.81;5057370;28;20217;-78
2023/08/24 11:21:39;;;;;;;5.03;4.63;;;;;;;26.54;64.01;101089.47;5058685;28;20335;-78
2023/08/24 11:24:06;;;;;;;4.77;4.40;;;;;;;26.71;64.61;101024.78;5059472;28;20556;-78
2023/08/24 11:26:33;;;;;;;4.73;4.33;;;;;;;26.83;62.39;101060.47;5058795;28;20284;-78